createdAt,value
2018-03-20T00:01:32.866Z,63.23
2018-03-20T00:02:33.281Z,63.42
2018-03-20T00:04:27.866Z,64.26
2018-03-20T00:05:28.286Z,63.89
2018-03-20T00:07:25.763Z,62.66
2018-03-20T00:08:26.187Z,62.66
2018-03-20T00:10:22.635Z,63.79
2018-03-20T00:11:23.043Z,64.73
2018-03-20T00:13:17.621Z,65.78
2018-03-20T00:14:18.026Z,66.44
2018-03-20T00:16:12.604Z,65.78
2018-03-20T00:17:13.018Z,65.78
2018-03-20T00:19:07.596Z,65.02
2018-03-20T00:20:08.021Z,65.21
2018-03-20T00:22:02.607Z,65.11
2018-03-20T00:23:03.015Z,65.02
2018-03-20T00:24:57.598Z,64.73
2018-03-20T00:25:58.020Z,63.98
2018-03-20T00:27:52.612Z,63.89
2018-03-20T00:28:53.018Z,64.26
2018-03-20T00:30:47.605Z,64.07
2018-03-20T00:31:48.015Z,63.70
2018-03-20T00:33:42.601Z,63.79
2018-03-20T00:34:43.018Z,63.79
2018-03-20T00:36:42.054Z,63.70
2018-03-20T00:39:16.108Z,64.73
2018-03-20T00:40:16.523Z,64.83
2018-03-20T00:42:11.109Z,65.11
2018-03-20T00:43:11.522Z,65.21
2018-03-20T00:45:07.084Z,65.02
2018-03-20T00:46:07.493Z,65.59
2018-03-20T00:48:02.097Z,65.21
2018-03-20T00:49:02.485Z,65.30
2018-03-20T00:51:10.269Z,65.11
2018-03-20T00:53:57.807Z,65.02
2018-03-20T00:56:31.330Z,68.14
2018-03-20T00:57:31.769Z,68.33
2018-03-20T00:59:42.895Z,68.52
2018-03-20T01:00:43.310Z,69.46
2018-03-20T01:02:37.900Z,70.21
2018-03-20T01:03:38.309Z,70.12
2018-03-20T01:05:32.889Z,71.16
2018-03-20T01:06:33.316Z,71.45
2018-03-20T01:08:27.895Z,71.88
2018-03-20T01:09:28.311Z,71.83
2018-03-20T01:11:22.884Z,71.83
2018-03-20T01:12:23.307Z,71.73
2018-03-20T01:14:17.894Z,71.83
2018-03-20T01:15:18.302Z,71.79
2018-03-20T01:17:12.936Z,71.92
2018-03-20T01:18:13.307Z,71.45
2018-03-20T01:19:13.725Z,70.88
2018-03-20T01:20:14.138Z,70.78
2018-03-20T01:21:14.554Z,71.26
2018-03-20T01:22:14.974Z,71.73
2018-03-20T01:23:15.393Z,71.64
2018-03-20T01:24:15.809Z,73.02
2018-03-20T01:25:16.281Z,73.39
2018-03-20T01:26:16.642Z,73.58
2018-03-20T01:27:17.062Z,73.68
2018-03-20T01:28:17.482Z,73.77
2018-03-20T01:29:17.897Z,73.86
2018-03-20T01:30:18.312Z,74.15
2018-03-20T01:31:18.730Z,74.00
2018-03-20T01:32:19.146Z,74.05
2018-03-20T01:33:19.566Z,75.09
2018-03-20T01:34:19.984Z,75.00
2018-03-20T01:35:20.401Z,74.15
2018-03-20T01:37:53.938Z,73.49
2018-03-20T01:38:54.347Z,73.14
2018-03-20T01:40:51.060Z,72.49
2018-03-20T01:41:51.461Z,72.49
2018-03-20T01:43:46.054Z,71.73
2018-03-20T01:44:46.455Z,72.02
2018-03-20T01:46:42.226Z,73.24
2018-03-20T01:47:42.673Z,73.05
2018-03-20T01:49:40.400Z,72.67
2018-03-20T01:50:40.810Z,72.49
2018-03-20T01:52:36.371Z,73.52
2018-03-20T01:53:36.787Z,73.71
2018-03-20T01:55:31.370Z,72.77
2018-03-20T01:56:31.786Z,72.30
2018-03-20T01:58:26.362Z,73.62
2018-03-20T01:59:26.768Z,74.19
2018-03-20T02:01:22.338Z,75.42
2018-03-20T02:02:22.751Z,74.95
2018-03-20T02:07:27.386Z,73.24
2018-03-20T02:08:27.794Z,73.24
2018-03-20T02:10:22.381Z,72.96
2018-03-20T02:11:22.795Z,72.77
2018-03-20T02:13:18.354Z,72.96
2018-03-20T02:14:18.805Z,72.67
2018-03-20T02:16:13.356Z,72.67
2018-03-20T02:17:13.768Z,72.67
2018-03-20T02:19:09.686Z,72.30
2018-03-20T02:20:10.103Z,72.11
2018-03-20T02:22:05.656Z,72.11
2018-03-20T02:23:06.070Z,72.58
2018-03-20T02:25:01.646Z,72.30
2018-03-20T02:26:02.055Z,72.86
2018-03-20T02:27:56.642Z,72.96
2018-03-20T02:28:57.049Z,72.77
2018-03-20T02:30:51.674Z,73.05
2018-03-20T02:31:52.046Z,72.96
2018-03-20T02:33:46.635Z,73.62
2018-03-20T02:34:47.053Z,73.24
2018-03-20T02:36:41.618Z,74.09
2018-03-20T02:37:42.038Z,74.19
2018-03-20T02:39:40.578Z,74.85
2018-03-20T02:40:40.991Z,74.85
2018-03-20T02:41:41.420Z,74.19
2018-03-20T02:42:41.837Z,74.47
2018-03-20T02:43:42.253Z,74.19
2018-03-20T02:44:42.669Z,74.00
2018-03-20T02:45:43.085Z,73.71
2018-03-20T02:46:43.498Z,73.71
2018-03-20T02:47:43.933Z,74.38
2018-03-20T02:48:44.335Z,74.53
2018-03-20T02:49:44.762Z,74.62
2018-03-20T02:50:45.172Z,75.51
2018-03-20T02:51:45.587Z,74.95
2018-03-20T02:52:46.010Z,75.28
2018-03-20T02:53:46.421Z,76.42
2018-03-20T02:54:46.842Z,76.79
2018-03-20T02:55:47.253Z,76.51
2018-03-20T02:56:47.675Z,77.36
2018-03-20T02:57:48.093Z,77.08
2018-03-20T02:58:48.508Z,77.26
2018-03-20T02:59:48.926Z,77.93
2018-03-20T03:00:49.351Z,77.93
2018-03-20T03:01:49.758Z,77.83
2018-03-20T03:02:50.185Z,78.78
2018-03-20T03:03:50.595Z,78.68
2018-03-20T03:04:51.021Z,78.50
2018-03-20T03:07:25.547Z,78.97
2018-03-20T03:10:23.827Z,79.25
2018-03-20T03:13:10.542Z,79.53
2018-03-20T03:15:44.070Z,79.91
2018-03-20T03:16:44.487Z,80.00
2018-03-20T03:18:39.427Z,80.38
2018-03-20T03:19:39.838Z,80.85
2018-03-20T03:21:34.414Z,81.23
2018-03-20T03:22:34.837Z,81.23
2018-03-20T03:24:30.390Z,81.71
2018-03-20T03:25:30.808Z,81.52
2018-03-20T03:27:25.400Z,81.42
2018-03-20T03:28:25.804Z,81.71
2018-03-20T03:30:20.386Z,81.04
2018-03-20T03:31:20.793Z,81.23
2018-03-20T03:33:15.769Z,81.04
2018-03-20T03:34:15.899Z,81.23
2018-03-20T03:36:40.128Z,81.71
2018-03-20T03:37:40.531Z,81.61
2018-03-20T03:39:39.122Z,81.90
2018-03-20T03:44:00.552Z,81.71
2018-03-20T03:46:39.710Z,81.90
2018-03-20T03:47:40.115Z,81.61
2018-03-20T03:49:35.213Z,81.90
2018-03-20T03:50:35.629Z,81.90
2018-03-20T03:52:30.211Z,81.80
2018-03-20T03:55:18.260Z,82.75
2018-03-20T03:59:24.859Z,85.06
2018-03-20T04:03:36.439Z,83.22
2018-03-20T04:06:09.995Z,83.12
2018-03-20T04:08:43.516Z,82.84
2018-03-20T04:09:44.109Z,82.75
2018-03-20T04:10:44.346Z,83.12
2018-03-20T04:14:31.463Z,84.82
2018-03-20T04:15:31.876Z,83.97
2018-03-20T04:17:26.460Z,83.88
2018-03-20T04:18:26.863Z,83.88
2018-03-20T04:20:22.430Z,84.07
2018-03-20T04:21:22.851Z,83.59
2018-03-20T04:22:23.259Z,83.97
2018-03-20T04:23:23.685Z,84.07
2018-03-20T04:24:24.094Z,83.88
2018-03-20T04:25:24.508Z,83.88
2018-03-20T04:26:24.929Z,83.97
2018-03-20T04:27:25.345Z,84.07
2018-03-20T04:28:25.761Z,84.07
2018-03-20T04:29:26.180Z,83.97
2018-03-20T04:30:26.594Z,84.07
2018-03-20T04:31:27.013Z,83.78
2018-03-20T04:32:27.433Z,84.45
2018-03-20T04:33:27.849Z,85.11
2018-03-20T04:34:28.262Z,85.01
2018-03-20T04:35:28.678Z,85.01
2018-03-20T04:36:29.101Z,85.49
2018-03-20T04:37:29.514Z,85.58
2018-03-20T04:38:29.927Z,86.24
2018-03-20T04:39:30.350Z,86.15
2018-03-20T04:40:30.774Z,86.05
2018-03-20T04:41:31.179Z,86.19
2018-03-20T04:42:31.593Z,86.38
2018-03-20T04:43:32.019Z,86.76
2018-03-20T04:44:32.437Z,86.86
2018-03-20T04:45:32.845Z,86.99
2018-03-20T04:46:33.261Z,86.67
2018-03-20T04:47:33.688Z,86.99
2018-03-20T04:48:34.095Z,87.05
2018-03-20T04:49:34.510Z,86.67
2018-03-20T04:50:34.926Z,86.62
2018-03-20T04:51:35.344Z,87.05
2018-03-20T04:52:35.760Z,86.99
2018-03-20T04:53:36.177Z,86.80
2018-03-20T04:54:36.594Z,87.18
2018-03-20T04:55:37.011Z,87.09
2018-03-20T04:56:37.427Z,86.62
2018-03-20T04:57:37.844Z,86.62
2018-03-20T04:58:38.269Z,86.80
2018-03-20T04:59:38.695Z,87.56
2018-03-20T05:00:39.095Z,87.37
2018-03-20T05:01:39.526Z,87.47
2018-03-20T05:02:39.938Z,87.56
2018-03-20T05:04:34.572Z,87.94
2018-03-20T05:05:34.925Z,87.28
2018-03-20T05:07:29.508Z,87.09
2018-03-20T05:08:29.925Z,87.47
2018-03-20T05:10:24.486Z,87.47
2018-03-20T05:11:24.904Z,87.47
2018-03-20T05:12:25.325Z,86.71
2018-03-20T05:13:25.735Z,86.90
2018-03-20T05:14:26.167Z,86.80
2018-03-20T05:15:26.574Z,86.43
2018-03-20T05:16:26.992Z,85.68
2018-03-20T05:17:27.405Z,86.24
2018-03-20T05:18:27.822Z,86.33
2018-03-20T05:19:28.239Z,86.05
2018-03-20T05:20:28.652Z,86.33
2018-03-20T05:21:29.079Z,86.24
2018-03-20T05:22:29.488Z,85.96
2018-03-20T05:23:29.904Z,86.33
2018-03-20T05:24:30.320Z,86.24
2018-03-20T05:25:30.737Z,86.24
2018-03-20T05:26:31.161Z,86.43
2018-03-20T05:27:31.572Z,86.43
2018-03-20T05:28:31.987Z,86.33
2018-03-20T05:29:32.412Z,86.62
2018-03-20T05:30:32.832Z,86.15
2018-03-20T05:31:33.243Z,86.33
2018-03-20T05:32:33.659Z,86.05
2018-03-20T05:33:34.075Z,86.15
2018-03-20T05:34:34.497Z,86.15
2018-03-20T05:35:34.908Z,85.86
2018-03-20T05:36:35.328Z,85.68
2018-03-20T05:37:35.740Z,85.68
2018-03-20T05:38:36.160Z,85.11
2018-03-20T05:39:36.579Z,84.54
2018-03-20T05:40:36.992Z,84.45
2018-03-20T05:41:37.410Z,84.45
2018-03-20T05:42:37.828Z,85.11
2018-03-20T05:43:38.245Z,84.64
2018-03-20T05:44:38.661Z,84.82
2018-03-20T05:45:39.080Z,85.01
2018-03-20T05:46:39.493Z,84.64
2018-03-20T05:47:39.907Z,84.54
2018-03-20T05:48:40.325Z,83.78
2018-03-20T05:49:40.746Z,83.22
2018-03-20T05:50:41.160Z,84.26
2018-03-20T05:51:41.577Z,83.31
2018-03-20T05:52:41.992Z,83.59
2018-03-20T05:53:42.405Z,83.59
2018-03-20T05:54:42.826Z,83.03
2018-03-20T05:55:43.239Z,82.84
2018-03-20T05:56:43.659Z,83.22
2018-03-20T05:57:44.070Z,83.12
2018-03-20T05:58:44.491Z,83.50
2018-03-20T05:59:44.916Z,83.50
2018-03-20T06:00:45.325Z,83.31
2018-03-20T06:01:45.738Z,83.31
2018-03-20T06:02:46.156Z,83.40
2018-03-20T06:03:46.572Z,83.12
2018-03-20T06:04:46.992Z,83.22
2018-03-20T06:05:47.405Z,83.40
2018-03-20T06:06:47.820Z,83.12
2018-03-20T06:07:48.238Z,82.50
2018-03-20T06:08:48.654Z,82.84
2018-03-20T06:09:49.071Z,82.12
2018-03-20T06:10:49.487Z,82.12
2018-03-20T06:11:49.905Z,82.50
2018-03-20T06:12:50.320Z,81.93
2018-03-20T06:13:50.740Z,81.74
2018-03-20T06:14:51.154Z,81.18
2018-03-20T06:15:51.606Z,81.09
2018-03-20T06:16:51.998Z,81.65
2018-03-20T06:17:52.412Z,80.99
2018-03-20T06:18:52.909Z,80.52
2018-03-20T06:19:53.263Z,80.90
2018-03-20T06:20:53.680Z,80.33
2018-03-20T06:21:54.110Z,79.95
2018-03-20T06:22:54.495Z,79.67
2018-03-20T06:23:54.912Z,80.14
2018-03-20T06:24:55.337Z,80.05
2018-03-20T06:25:55.759Z,80.71
2018-03-20T06:26:56.163Z,80.43
2018-03-20T06:27:56.877Z,80.33
2018-03-20T06:28:57.010Z,80.24
2018-03-20T06:29:57.425Z,80.05
2018-03-20T06:30:57.850Z,79.57
2018-03-20T06:31:58.255Z,79.57
2018-03-20T06:32:58.674Z,79.95
2018-03-20T06:33:59.092Z,79.57
2018-03-20T06:34:59.509Z,79.67
2018-03-20T06:35:59.926Z,79.29
2018-03-20T06:37:00.354Z,79.10
2018-03-20T06:38:00.864Z,79.29
2018-03-20T06:39:01.182Z,79.76
2018-03-20T06:40:01.609Z,80.43
2018-03-20T06:41:02.014Z,81.18
2018-03-20T06:42:02.435Z,81.74
2018-03-20T06:43:02.851Z,81.74
2018-03-20T06:44:03.305Z,81.09
2018-03-20T06:45:03.707Z,80.71
2018-03-20T06:46:04.133Z,79.80
2018-03-20T06:47:04.550Z,79.05
2018-03-20T06:48:05.062Z,79.33
2018-03-20T06:49:05.370Z,78.58
2018-03-20T06:50:05.806Z,78.48
2018-03-20T06:51:06.199Z,77.72
2018-03-20T06:52:06.635Z,76.97
2018-03-20T06:53:07.038Z,77.25
2018-03-20T06:54:07.466Z,76.97
2018-03-20T06:55:07.875Z,76.74
2018-03-20T06:56:08.289Z,76.78
2018-03-20T06:57:08.708Z,76.55
2018-03-20T06:58:09.135Z,77.15
2018-03-20T06:59:09.562Z,77.15
2018-03-20T07:00:09.972Z,75.64
2018-03-20T07:01:10.389Z,74.88
2018-03-20T07:02:10.801Z,75.83
2018-03-20T07:03:11.218Z,76.93
2018-03-20T07:04:11.648Z,77.87
2018-03-20T07:05:12.062Z,79.67
2018-03-20T07:06:12.487Z,79.67
2018-03-20T07:07:12.896Z,80.56
2018-03-20T07:08:13.312Z,81.32
2018-03-20T07:10:46.872Z,83.73
2018-03-20T07:11:47.335Z,84.44
2018-03-20T07:12:47.709Z,84.81
2018-03-20T07:13:48.122Z,85.10
2018-03-20T07:14:48.539Z,84.91
2018-03-20T07:15:48.963Z,84.53
2018-03-20T07:16:49.441Z,85.66
2018-03-20T07:17:49.792Z,87.65
2018-03-20T07:18:50.206Z,88.12
2018-03-20T07:19:50.636Z,87.51
2018-03-20T07:20:51.050Z,87.79
2018-03-20T07:21:51.471Z,88.07
2018-03-20T07:22:51.949Z,89.40
2018-03-20T07:23:52.306Z,89.78
2018-03-20T07:24:52.727Z,91.48
2018-03-20T07:25:53.141Z,94.18
2018-03-20T07:26:53.561Z,96.64
2018-03-20T07:27:53.985Z,99.99
2018-03-20T07:28:54.424Z,99.99
2018-03-20T07:29:54.823Z,99.99
2018-03-20T07:30:55.243Z,99.99
2018-03-20T07:31:55.654Z,99.99
2018-03-20T07:32:56.082Z,99.99
2018-03-20T07:33:56.490Z,99.99
2018-03-20T07:34:56.914Z,99.99
2018-03-20T07:35:57.333Z,99.99
2018-03-20T07:36:57.758Z,99.99
2018-03-20T07:37:58.168Z,99.99
2018-03-20T07:38:58.593Z,99.99
2018-03-20T07:39:59.019Z,99.99
2018-03-20T07:40:59.578Z,99.99
2018-03-20T07:41:59.853Z,99.99
2018-03-20T07:43:00.271Z,99.99
2018-03-20T07:44:00.689Z,99.99
2018-03-20T07:45:01.114Z,99.99
2018-03-20T07:46:01.538Z,99.99
2018-03-20T07:47:01.955Z,99.99
2018-03-20T07:48:02.381Z,99.99
2018-03-20T07:49:02.802Z,99.99
2018-03-20T07:50:03.220Z,99.99
2018-03-20T07:51:03.638Z,99.99
2018-03-20T07:52:04.049Z,99.99
2018-03-20T07:53:04.477Z,99.99
2018-03-20T07:54:04.892Z,99.99
2018-03-20T07:55:05.350Z,99.99
2018-03-20T07:56:05.748Z,99.99
2018-03-20T07:57:06.218Z,99.99
2018-03-20T07:58:06.580Z,99.99
2018-03-20T07:59:07.000Z,99.99
2018-03-20T08:00:07.421Z,99.99
2018-03-20T08:01:07.836Z,99.99
2018-03-20T08:02:08.284Z,99.99
2018-03-20T08:03:08.681Z,99.99
2018-03-20T08:04:09.110Z,99.99
2018-03-20T08:05:09.517Z,99.99
2018-03-20T08:06:09.944Z,99.99
2018-03-20T08:07:10.358Z,99.99
2018-03-20T08:08:10.782Z,99.99
2018-03-20T08:09:11.202Z,97.30
2018-03-20T08:10:11.623Z,98.20
2018-03-20T08:11:12.045Z,97.82
2018-03-20T08:12:12.472Z,98.29
2018-03-20T08:13:12.919Z,98.34
2018-03-20T08:14:13.323Z,97.72
2018-03-20T08:15:13.728Z,96.02
2018-03-20T08:16:14.156Z,95.64
2018-03-20T08:17:14.566Z,96.31
2018-03-20T08:18:14.991Z,94.70
2018-03-20T08:19:15.411Z,92.99
2018-03-20T08:20:15.850Z,93.09
2018-03-20T08:21:16.253Z,93.66
2018-03-20T08:22:16.679Z,93.99
2018-03-20T08:23:17.096Z,95.17
2018-03-20T08:24:17.532Z,92.80
2018-03-20T08:25:17.937Z,92.52
2018-03-20T08:26:18.363Z,93.47
2018-03-20T08:27:18.781Z,93.89
2018-03-20T08:28:19.196Z,93.47
2018-03-20T08:29:19.671Z,93.28
2018-03-20T08:30:20.042Z,89.78
2018-03-20T08:31:20.454Z,88.79
2018-03-20T08:32:20.879Z,86.90
2018-03-20T08:33:21.305Z,86.04
2018-03-20T08:34:21.721Z,84.91
2018-03-20T08:35:22.140Z,84.44
2018-03-20T08:36:22.568Z,83.68
2018-03-20T08:37:22.976Z,82.73
2018-03-20T08:38:23.526Z,81.03
2018-03-20T08:39:23.824Z,81.60
2018-03-20T08:40:24.249Z,81.32
2018-03-20T08:41:24.664Z,79.33
2018-03-20T08:42:25.082Z,78.42
2018-03-20T08:43:25.500Z,78.80
2018-03-20T08:44:25.984Z,78.42
2018-03-20T08:45:26.338Z,79.94
2018-03-20T08:46:26.770Z,78.23
2018-03-20T08:47:27.185Z,78.39
2018-03-20T08:48:27.605Z,77.63
2018-03-20T08:49:28.021Z,76.97
2018-03-20T08:50:28.440Z,76.15
2018-03-20T08:51:28.866Z,79.66
2018-03-20T08:52:29.289Z,80.22
2018-03-20T08:53:29.711Z,81.26
2018-03-20T08:54:30.123Z,83.53
2018-03-20T08:55:30.548Z,84.52
2018-03-20T08:56:30.962Z,86.32
2018-03-20T08:57:31.384Z,87.74
2018-03-20T08:58:31.805Z,88.68
2018-03-20T08:59:32.227Z,88.97
2018-03-20T09:00:32.693Z,86.18
2018-03-20T09:01:33.062Z,83.87
2018-03-20T09:02:33.485Z,82.50
2018-03-20T09:03:33.904Z,77.44
2018-03-20T09:04:34.336Z,75.78
2018-03-20T09:05:34.748Z,75.83
2018-03-20T09:06:35.168Z,75.64
2018-03-20T09:07:35.586Z,73.56
2018-03-20T09:08:36.021Z,71.01
2018-03-20T09:09:36.440Z,72.62
2018-03-20T09:10:36.933Z,71.77
2018-03-20T09:11:37.271Z,70.86
2018-03-20T09:12:37.687Z,71.86
2018-03-20T09:13:38.116Z,73.75
2018-03-20T09:14:38.543Z,72.71
2018-03-20T09:15:38.953Z,71.71
2018-03-20T09:16:39.383Z,71.23
2018-03-20T09:17:39.792Z,73.41
2018-03-20T09:18:40.216Z,76.06
2018-03-20T09:19:40.636Z,77.01
2018-03-20T09:20:41.048Z,76.91
2018-03-20T09:21:41.471Z,78.33
2018-03-20T09:22:41.893Z,75.96
2018-03-20T09:23:42.326Z,74.55
2018-03-20T09:24:42.766Z,71.23
2018-03-20T09:25:43.203Z,67.55
2018-03-20T09:26:43.595Z,68.02
2018-03-20T09:27:44.036Z,69.53
2018-03-20T09:28:44.459Z,70.48
2018-03-20T09:29:44.912Z,70.95
2018-03-20T09:30:45.285Z,72.56
2018-03-20T09:31:45.723Z,71.42
2018-03-20T09:32:46.135Z,67.36
2018-03-20T09:33:46.540Z,67.07
2018-03-20T09:34:46.973Z,68.02
2018-03-20T09:35:47.390Z,69.91
2018-03-20T09:36:47.792Z,72.47
2018-03-20T09:37:48.243Z,74.26
2018-03-20T09:38:48.629Z,73.79
2018-03-20T09:39:49.044Z,73.98
2018-03-20T09:40:49.490Z,72.66
2018-03-20T09:41:49.882Z,70.39
2018-03-20T09:42:50.315Z,67.36
2018-03-20T09:43:50.789Z,69.06
2018-03-20T09:44:51.177Z,69.72
2018-03-20T09:45:51.630Z,65.66
2018-03-20T09:46:52.024Z,63.13
2018-03-20T09:47:52.448Z,69.09
2018-03-20T09:48:52.856Z,69.28
2018-03-20T09:49:53.244Z,72.12
2018-03-20T09:50:53.686Z,73.22
2018-03-20T09:51:54.094Z,75.78
2018-03-20T09:52:54.517Z,72.37
2018-03-20T09:53:54.957Z,69.72
2018-03-20T09:54:55.367Z,74.07
2018-03-20T09:55:55.777Z,74.55
2018-03-20T09:56:56.215Z,73.13
2018-03-20T09:57:56.632Z,74.11
2018-03-20T09:58:57.055Z,73.54
2018-03-20T09:59:57.472Z,73.92
2018-03-20T10:00:57.898Z,78.85
2018-03-20T10:01:58.302Z,77.04
2018-03-20T10:02:58.729Z,75.87
2018-03-20T10:03:59.184Z,74.74
2018-03-20T10:04:59.574Z,74.49
2018-03-20T10:06:00.006Z,76.19
2018-03-20T10:07:00.475Z,78.56
2018-03-20T10:08:00.844Z,76.67
2018-03-20T10:09:01.264Z,77.89
2018-03-20T10:10:01.681Z,80.64
2018-03-20T10:11:02.094Z,79.03
2018-03-20T10:12:02.541Z,77.99
2018-03-20T10:13:02.950Z,79.13
2018-03-20T10:14:03.414Z,81.25
2018-03-20T10:15:03.780Z,83.20
2018-03-20T10:16:04.206Z,85.80
2018-03-20T10:17:04.656Z,88.59
2018-03-20T10:18:05.066Z,87.08
2018-03-20T10:19:05.473Z,87.55
2018-03-20T10:20:05.959Z,89.39
2018-03-20T10:21:06.397Z,89.30
2018-03-20T10:22:06.740Z,86.70
2018-03-20T10:23:07.155Z,86.51
2018-03-20T10:24:07.589Z,81.12
2018-03-20T10:25:08.022Z,80.07
2018-03-20T10:26:08.424Z,81.02
2018-03-20T10:27:08.862Z,80.83
2018-03-20T10:28:09.297Z,80.55
2018-03-20T10:29:09.722Z,83.39
2018-03-20T10:30:10.147Z,84.56
2018-03-20T10:31:10.562Z,81.96
2018-03-20T10:32:11.007Z,84.52
2018-03-20T10:33:11.392Z,84.23
2018-03-20T10:34:11.802Z,82.21
2018-03-20T10:35:12.227Z,77.95
2018-03-20T10:36:12.664Z,73.88
2018-03-20T10:37:13.069Z,75.21
2018-03-20T10:38:13.499Z,77.01
2018-03-20T10:39:13.910Z,77.95
2018-03-20T10:40:14.369Z,76.72
2018-03-20T10:41:14.751Z,78.23
2018-03-20T10:42:15.195Z,76.72
2018-03-20T10:43:15.593Z,77.48
2018-03-20T10:44:16.069Z,76.25
2018-03-20T10:45:16.445Z,77.86
2018-03-20T10:46:16.865Z,79.79
2018-03-20T10:47:17.344Z,80.93
2018-03-20T10:48:17.726Z,82.87
2018-03-20T10:49:18.131Z,81.40
2018-03-20T10:50:18.548Z,83.39
2018-03-20T10:51:18.956Z,83.58
2018-03-20T10:52:19.374Z,82.82
2018-03-20T10:53:19.798Z,83.95
2018-03-20T10:54:20.224Z,83.39
2018-03-20T10:55:20.637Z,82.91
2018-03-20T10:56:21.068Z,80.04
2018-03-20T10:57:21.479Z,78.71
2018-03-20T10:58:21.902Z,75.21
2018-03-20T10:59:22.341Z,76.34
2018-03-20T11:00:22.743Z,77.39
2018-03-20T11:01:23.168Z,75.49
2018-03-20T11:02:23.585Z,74.64
2018-03-20T11:03:24.007Z,76.15
2018-03-20T11:04:24.427Z,79.94
2018-03-20T11:05:24.843Z,77.48
2018-03-20T11:06:25.262Z,78.37
2018-03-20T11:07:25.691Z,79.13
2018-03-20T11:08:26.130Z,79.09
2018-03-20T11:09:26.525Z,78.05
2018-03-20T11:10:26.976Z,78.18
2018-03-20T11:11:27.393Z,79.94
2018-03-20T11:12:27.791Z,77.20
2018-03-20T11:13:28.204Z,74.83
2018-03-20T11:14:28.630Z,76.25
2018-03-20T11:15:29.043Z,75.02
2018-03-20T11:16:29.469Z,75.81
2018-03-20T11:17:29.891Z,77.51
2018-03-20T11:18:30.306Z,75.91
2018-03-20T11:19:30.732Z,76.53
2018-03-20T11:20:31.161Z,78.37
2018-03-20T11:21:31.568Z,80.36
2018-03-20T11:22:31.995Z,79.22
2018-03-20T11:23:32.411Z,79.79
2018-03-20T11:24:32.832Z,81.49
2018-03-20T11:25:33.251Z,81.12
2018-03-20T11:26:33.688Z,79.98
2018-03-20T11:27:34.094Z,80.26
2018-03-20T11:28:34.521Z,81.40
2018-03-20T11:29:34.943Z,81.21
2018-03-20T11:30:35.359Z,81.49
2018-03-20T11:31:35.788Z,78.85
2018-03-20T11:32:36.205Z,80.07
2018-03-20T11:33:36.623Z,80.45
2018-03-20T11:34:37.032Z,81.40
2018-03-20T11:35:37.463Z,81.59
2018-03-20T11:36:37.884Z,82.72
2018-03-20T11:37:38.300Z,79.41
2018-03-20T11:38:38.725Z,79.03
2018-03-20T11:39:39.164Z,79.50
2018-03-20T11:40:39.570Z,83.39
2018-03-20T11:41:39.983Z,79.98
2018-03-20T11:42:40.412Z,78.33
2018-03-20T11:43:40.831Z,76.72
2018-03-20T11:44:41.255Z,76.53
2018-03-20T11:45:41.671Z,75.78
2018-03-20T11:46:42.087Z,77.29
2018-03-20T11:47:42.514Z,77.10
2018-03-20T11:48:42.921Z,77.58
2018-03-20T11:49:43.350Z,79.09
2018-03-20T11:50:43.770Z,76.82
2018-03-20T11:51:44.181Z,78.65
2018-03-20T11:52:44.614Z,79.69
2018-03-20T11:53:45.032Z,79.98
2018-03-20T11:54:45.502Z,83.20
2018-03-20T11:55:45.871Z,84.81
2018-03-20T11:56:46.288Z,83.67
2018-03-20T11:57:46.708Z,82.34
2018-03-20T11:58:47.129Z,82.72
2018-03-20T11:59:47.558Z,83.62
2018-03-20T12:00:47.977Z,84.52
2018-03-20T12:01:48.386Z,85.99
2018-03-20T12:02:48.815Z,84.81
2018-03-20T12:03:49.238Z,84.52
2018-03-20T12:04:49.710Z,83.29
2018-03-20T12:05:50.078Z,82.91
2018-03-20T12:06:50.494Z,79.03
2018-03-20T12:07:50.910Z,81.02
2018-03-20T12:08:51.349Z,83.10
2018-03-20T12:09:51.768Z,84.66
2018-03-20T12:10:52.182Z,83.86
2018-03-20T12:11:52.599Z,83.29
2018-03-20T12:12:53.026Z,81.87
2018-03-20T12:13:53.444Z,81.87
2018-03-20T12:14:53.862Z,81.21
2018-03-20T12:15:54.284Z,81.21
2018-03-20T12:16:54.707Z,80.74
2018-03-20T12:17:55.134Z,80.64
2018-03-20T12:18:55.764Z,81.77
2018-03-20T12:19:55.963Z,83.01
2018-03-20T12:20:56.384Z,82.01
2018-03-20T12:21:56.824Z,84.00
2018-03-20T12:22:57.234Z,84.94
2018-03-20T12:23:57.655Z,85.23
2018-03-20T12:24:58.066Z,86.74
2018-03-20T12:25:58.496Z,88.26
2018-03-20T12:26:58.907Z,87.98
2018-03-20T12:27:59.337Z,85.47
2018-03-20T12:28:59.751Z,84.71
2018-03-20T12:30:00.176Z,85.42
2018-03-20T12:31:00.602Z,86.32
2018-03-20T12:32:01.031Z,85.94
2018-03-20T12:33:01.445Z,86.70
2018-03-20T12:34:01.861Z,86.79
2018-03-20T12:35:02.281Z,86.70
2018-03-20T12:36:02.706Z,86.32
2018-03-20T12:37:03.120Z,86.46
2018-03-20T12:38:03.627Z,87.40
2018-03-20T12:39:03.966Z,88.64
2018-03-20T12:40:04.388Z,89.30
2018-03-20T12:41:04.807Z,89.49
2018-03-20T12:42:05.233Z,89.96
2018-03-20T12:43:05.670Z,90.72
2018-03-20T12:44:06.077Z,90.06
2018-03-20T12:45:06.493Z,90.25
2018-03-20T12:46:06.910Z,89.96
2018-03-20T12:47:07.340Z,91.10
2018-03-20T12:48:07.753Z,91.00
2018-03-20T12:49:08.182Z,90.63
2018-03-20T12:50:08.598Z,90.72
2018-03-20T12:51:09.018Z,91.19
2018-03-20T12:52:09.435Z,92.05
2018-03-20T12:53:09.867Z,91.81
2018-03-20T12:54:10.301Z,91.43
2018-03-20T12:55:10.705Z,0.00
2018-03-20T12:56:11.129Z,0.00
2018-03-20T12:57:11.547Z,0.00
2018-03-20T12:58:11.969Z,0.00
2018-03-20T12:59:12.397Z,0.00
2018-03-20T13:00:12.820Z,0.00
2018-03-20T13:01:13.235Z,0.00
2018-03-20T13:02:13.657Z,0.00
2018-03-20T13:03:14.076Z,0.00
2018-03-20T13:04:14.506Z,0.00
2018-03-20T13:05:14.922Z,0.00
2018-03-20T13:06:15.348Z,0.00
2018-03-20T13:07:15.771Z,0.00
2018-03-20T13:08:16.187Z,0.00
2018-03-20T13:09:16.608Z,0.00
2018-03-20T13:10:17.036Z,91.57
2018-03-20T13:11:17.463Z,92.24
2018-03-20T13:12:17.883Z,92.14
2018-03-20T13:13:18.301Z,91.29
2018-03-20T13:14:18.721Z,91.95
2018-03-20T13:15:19.142Z,91.57
2018-03-20T13:16:19.558Z,91.10
2018-03-20T13:17:19.987Z,90.91
2018-03-20T13:18:20.413Z,90.91
2018-03-20T13:19:20.858Z,90.91
2018-03-20T13:20:21.254Z,90.53
2018-03-20T13:21:21.663Z,91.14
2018-03-20T13:22:22.097Z,91.71
2018-03-20T13:23:22.536Z,0.00
2018-03-20T13:24:22.938Z,0.00
2018-03-20T13:25:23.355Z,0.00
2018-03-20T13:26:23.815Z,0.00
2018-03-20T13:27:24.203Z,0.00
2018-03-20T13:28:24.615Z,0.00
2018-03-20T13:29:25.059Z,0.00
2018-03-20T13:30:25.471Z,0.00
2018-03-20T13:31:25.894Z,0.00
2018-03-20T13:32:26.305Z,92.52
2018-03-20T13:33:26.732Z,91.81
2018-03-20T13:34:27.161Z,92.09
2018-03-20T13:35:27.574Z,92.47
2018-03-20T13:36:28.003Z,92.38
2018-03-20T13:37:28.414Z,92.85
2018-03-20T13:38:28.838Z,92.09
2018-03-20T13:39:29.263Z,92.94
2018-03-20T13:40:29.682Z,92.28
2018-03-20T13:41:30.105Z,92.33
2018-03-20T13:42:30.526Z,92.05
2018-03-20T13:43:30.957Z,92.09
2018-03-20T13:44:31.366Z,92.14
2018-03-20T13:45:31.796Z,92.28
2018-03-20T13:46:32.212Z,91.71
2018-03-20T13:47:32.635Z,0.00
2018-03-20T13:48:33.057Z,0.00
2018-03-20T13:49:33.497Z,0.00
2018-03-20T13:50:33.906Z,0.00
2018-03-20T13:51:34.322Z,0.00
2018-03-20T13:52:34.759Z,0.00
2018-03-20T13:53:35.159Z,0.00
2018-03-20T13:54:35.582Z,0.00
2018-03-20T13:55:36.001Z,0.00
2018-03-20T13:56:36.434Z,0.00
2018-03-20T13:57:36.862Z,0.00
2018-03-20T13:58:37.293Z,0.00
2018-03-20T13:59:37.697Z,0.00
2018-03-20T14:00:38.113Z,0.00
2018-03-20T14:01:38.526Z,90.44
2018-03-20T14:02:38.960Z,90.39
2018-03-20T14:03:39.374Z,0.00
2018-03-20T14:04:39.849Z,0.00
2018-03-20T14:05:40.212Z,0.00
2018-03-20T14:06:40.701Z,0.00
2018-03-20T14:07:41.056Z,0.00
2018-03-20T14:08:41.476Z,0.00
2018-03-20T14:09:41.900Z,0.00
2018-03-20T14:10:42.339Z,0.00
2018-03-20T14:11:42.749Z,89.72
2018-03-20T14:12:43.170Z,0.00
2018-03-20T14:13:43.583Z,0.00
2018-03-20T14:14:44.016Z,0.00
2018-03-20T14:15:44.422Z,0.00
2018-03-20T14:16:44.845Z,0.00
2018-03-20T14:17:45.302Z,0.00
2018-03-20T14:18:45.693Z,90.01
2018-03-20T14:19:46.110Z,0.00
2018-03-20T14:20:46.542Z,90.10
2018-03-20T14:21:46.950Z,90.58
2018-03-20T14:22:47.372Z,90.77
2018-03-20T14:23:47.800Z,90.01
2018-03-20T14:24:48.215Z,90.10
2018-03-20T14:25:48.643Z,90.67
2018-03-20T14:26:49.061Z,0.00
2018-03-20T14:27:49.475Z,0.00
2018-03-20T14:28:49.899Z,89.91
2018-03-20T14:29:50.320Z,0.00
2018-03-20T14:30:50.740Z,0.00
2018-03-20T14:31:51.167Z,0.00